createdAt,value
2022-11-05T00:02:23.455Z,98240.06
2022-11-05T00:05:08.806Z,98244.41
2022-11-05T00:08:02.362Z,98245.25
2022-11-05T00:10:31.342Z,98242.75
2022-11-05T00:13:18.151Z,98244.47
2022-11-05T00:16:03.941Z,98254.22
2022-11-05T00:18:31.049Z,98261.38
2022-11-05T00:20:57.652Z,98254.13
2022-11-05T00:23:43.000Z,98257.06
2022-11-05T00:26:11.474Z,98263.31
2022-11-05T00:28:41.521Z,98264.19
2022-11-05T00:31:10.783Z,98271.16
2022-11-05T00:33:38.749Z,98276.53
2022-11-05T00:36:07.487Z,98271.94
2022-11-05T00:38:34.456Z,98271.19
2022-11-05T00:41:01.158Z,98273.03
2022-11-05T00:43:46.461Z,98280.97
2022-11-05T00:46:13.258Z,98281.97
2022-11-05T00:48:58.650Z,98288.16
2022-11-05T00:51:25.289Z,98287.16
2022-11-05T00:53:51.970Z,98291.56
2022-11-05T00:56:18.631Z,98298.72
2022-11-05T00:58:45.447Z,98293.44
2022-11-05T01:01:12.279Z,98305.69
2022-11-05T01:03:39.587Z,98306.75
2022-11-05T01:06:15.363Z,98305.88
2022-11-05T01:08:44.832Z,98311.16
2022-11-05T01:11:36.869Z,98311.16
2022-11-05T01:14:07.564Z,98308.72
2022-11-05T01:16:34.546Z,98307.06
2022-11-05T01:19:02.140Z,98306.28
2022-11-05T01:21:28.915Z,98309.72
2022-11-05T01:23:55.581Z,98318.69
2022-11-05T01:26:22.719Z,98315.09
2022-11-05T01:28:56.568Z,98314.47
2022-11-05T01:31:23.864Z,98320.91
2022-11-05T01:33:51.041Z,98318.50
2022-11-05T01:36:17.919Z,98320.34
2022-11-05T01:38:44.710Z,98319.78
2022-11-05T01:41:11.583Z,98319.00
2022-11-05T01:43:59.136Z,98329.78
2022-11-05T01:46:31.672Z,98341.56
2022-11-05T01:49:06.693Z,98350.44
2022-11-05T01:51:33.357Z,98349.66
2022-11-05T01:54:04.638Z,98343.53
2022-11-05T01:56:39.152Z,98350.66
2022-11-05T01:59:09.313Z,98342.06
2022-11-05T02:01:36.316Z,98352.72
2022-11-05T02:04:07.246Z,98361.63
2022-11-05T02:06:38.900Z,98362.56
2022-11-05T02:09:24.335Z,98370.56
2022-11-05T02:11:51.788Z,98366.16
2022-11-05T02:14:18.760Z,98366.31
2022-11-05T02:16:56.190Z,98369.81
2022-11-05T02:19:42.549Z,98374.91
2022-11-05T02:22:36.867Z,98367.06
2022-11-05T02:25:34.374Z,98374.16
2022-11-05T02:28:39.840Z,98377.84
2022-11-05T02:31:28.249Z,98386.72
2022-11-05T02:34:05.972Z,98391.25
2022-11-05T02:36:43.958Z,98396.56
2022-11-05T02:39:10.541Z,98409.75
2022-11-05T02:41:46.031Z,98400.81
2022-11-05T02:44:35.915Z,98405.19
2022-11-05T02:47:18.130Z,98411.34
2022-11-05T02:50:01.302Z,98410.47
2022-11-05T02:52:51.459Z,98421.03
2022-11-05T02:55:53.430Z,98421.03
2022-11-05T02:58:20.039Z,98427.13
2022-11-05T03:00:51.596Z,98429.63
2022-11-05T03:03:18.208Z,98425.09
2022-11-05T03:06:15.287Z,98424.19
2022-11-05T03:09:00.158Z,98433.00
2022-11-05T03:11:30.919Z,98434.72
2022-11-05T03:14:35.962Z,98439.16
2022-11-05T03:17:17.565Z,98438.31
2022-11-05T03:19:53.642Z,98444.53
2022-11-05T03:22:30.528Z,98448.94
2022-11-05T03:25:10.792Z,98449.00
2022-11-05T03:27:42.000Z,98449.88
2022-11-05T03:30:12.726Z,98438.53
2022-11-05T03:32:44.078Z,98450.06
2022-11-05T03:35:25.714Z,98450.91
2022-11-05T03:37:58.337Z,98443.94
2022-11-05T03:40:26.150Z,98439.66
2022-11-05T03:42:58.035Z,98437.91
2022-11-05T03:45:34.783Z,98445.09
2022-11-05T03:48:04.738Z,98445.16
2022-11-05T03:50:49.188Z,98439.13
2022-11-05T03:53:21.549Z,98447.31
2022-11-05T03:55:54.620Z,98451.88
2022-11-05T03:58:23.465Z,98456.41
2022-11-05T04:00:51.021Z,98459.13
2022-11-05T04:03:20.573Z,98465.31
2022-11-05T04:06:07.240Z,98462.69
2022-11-05T04:08:52.376Z,98471.56
2022-11-05T04:11:37.796Z,98473.34
2022-11-05T04:14:04.446Z,98469.84
2022-11-05T04:16:49.765Z,98472.47
2022-11-05T04:19:36.336Z,98481.38
2022-11-05T04:22:21.607Z,98484.91
2022-11-05T04:24:48.252Z,98487.66
2022-11-05T04:27:14.888Z,98484.16
2022-11-05T04:30:00.310Z,98490.38
2022-11-05T04:32:27.308Z,98495.69
2022-11-05T04:34:53.990Z,98501.84
2022-11-05T04:37:20.628Z,98509.75
2022-11-05T04:39:47.258Z,98510.63
2022-11-05T04:42:13.916Z,98499.31
2022-11-05T04:44:40.565Z,98502.06
2022-11-05T04:47:07.315Z,98503.03
2022-11-05T04:49:33.933Z,98511.91
2022-11-05T04:52:00.545Z,98515.44
2022-11-05T04:54:27.318Z,98521.63
2022-11-05T04:56:53.896Z,98525.22
2022-11-05T04:59:20.547Z,98522.59
2022-11-05T05:01:51.614Z,98525.19
2022-11-05T05:04:18.758Z,98514.63
2022-11-05T05:06:45.728Z,98517.38
2022-11-05T05:09:12.400Z,98515.69
2022-11-05T05:11:39.061Z,98524.56
2022-11-05T05:14:05.726Z,98528.16
2022-11-05T05:16:32.461Z,98526.44
2022-11-05T05:18:59.182Z,98529.16
2022-11-05T05:21:41.587Z,98539.72
2022-11-05T05:24:13.956Z,98545.03
2022-11-05T05:26:43.660Z,98547.72
2022-11-05T05:29:11.268Z,98545.03
2022-11-05T05:31:38.709Z,98540.66
2022-11-05T05:34:06.747Z,98545.06
2022-11-05T05:36:33.591Z,98552.09
2022-11-05T05:39:00.311Z,98552.06
2022-11-05T05:41:27.375Z,98549.47
2022-11-05T05:43:54.043Z,98553.81
2022-11-05T05:46:20.710Z,98560.03
2022-11-05T05:48:51.725Z,98561.81
2022-11-05T05:51:19.329Z,98553.94
2022-11-05T05:53:45.994Z,98560.94
2022-11-05T05:56:15.006Z,98560.16
2022-11-05T05:58:42.087Z,98572.47
2022-11-05T06:01:17.247Z,98571.63
2022-11-05T06:03:45.578Z,98576.91
2022-11-05T06:06:14.041Z,98574.28
2022-11-05T06:08:41.373Z,98582.22
2022-11-05T06:11:09.078Z,98581.38
2022-11-05T06:13:36.855Z,98580.47
2022-11-05T06:16:08.618Z,98584.84
2022-11-05T06:18:36.285Z,98583.97
2022-11-05T06:21:12.135Z,98587.47
2022-11-05T06:23:40.327Z,98584.00
2022-11-05T06:26:12.511Z,98586.63
2022-11-05T06:28:39.799Z,98586.63
2022-11-05T06:31:06.450Z,98590.16
2022-11-05T06:33:33.190Z,98591.03
2022-11-05T06:36:02.021Z,98590.13
2022-11-05T06:38:31.332Z,98600.75
2022-11-05T06:40:59.411Z,98608.66
2022-11-05T06:43:27.219Z,98607.81
2022-11-05T06:45:54.479Z,98613.97
2022-11-05T06:48:21.314Z,98616.59
2022-11-05T06:50:48.059Z,98613.94
2022-11-05T06:53:14.717Z,98620.94
2022-11-05T06:55:41.423Z,98615.63
2022-11-05T06:58:08.192Z,98613.81
2022-11-05T07:00:34.907Z,98616.41
2022-11-05T07:03:10.790Z,98627.78
2022-11-05T07:05:42.211Z,98629.50
2022-11-05T07:08:09.036Z,98637.31
2022-11-05T07:10:35.692Z,98646.06
2022-11-05T07:13:07.781Z,98644.22
2022-11-05T07:15:36.448Z,98651.16
2022-11-05T07:18:05.170Z,98654.53
2022-11-05T07:20:34.148Z,98663.19
2022-11-05T07:23:02.622Z,98666.56
2022-11-05T07:25:31.038Z,98668.16
2022-11-05T07:27:57.944Z,98677.72
2022-11-05T07:30:25.023Z,98684.56
2022-11-05T07:32:51.948Z,98687.03
2022-11-05T07:35:18.703Z,98683.38
2022-11-05T07:37:51.114Z,98691.97
2022-11-05T07:40:19.367Z,98688.34
2022-11-05T07:42:48.119Z,98690.84
2022-11-05T07:45:15.542Z,98691.72
2022-11-05T07:47:53.488Z,98695.03
2022-11-05T07:50:22.384Z,98703.72
2022-11-05T07:52:50.104Z,98707.84
2022-11-05T07:55:18.134Z,98704.03
2022-11-05T07:57:46.483Z,98710.84
2022-11-05T08:00:15.984Z,98707.22
2022-11-05T08:02:43.380Z,98718.31
2022-11-05T08:05:10.507Z,98716.25
2022-11-05T08:07:37.185Z,98720.09
2022-11-05T08:10:04.396Z,98728.47
2022-11-05T08:12:32.347Z,98721.03
2022-11-05T08:14:59.035Z,98728.59
2022-11-05T08:17:25.836Z,98723.88
2022-11-05T08:19:52.572Z,98731.53
2022-11-05T08:22:19.195Z,98730.84
2022-11-05T08:24:45.991Z,98730.47
2022-11-05T08:27:12.791Z,98734.88
2022-11-05T08:29:39.432Z,98734.72
2022-11-05T08:32:06.125Z,98737.25
2022-11-05T08:34:32.823Z,98730.47
2022-11-05T08:37:01.180Z,98732.06
2022-11-05T08:39:27.937Z,98729.22
2022-11-05T08:41:54.976Z,98725.69
2022-11-05T08:44:21.661Z,98730.00
2022-11-05T08:46:49.195Z,98728.63
2022-11-05T08:49:15.876Z,98741.78
2022-11-05T08:51:44.609Z,98738.47
2022-11-05T08:54:11.360Z,98733.34
2022-11-05T08:56:38.303Z,98733.75
2022-11-05T08:59:05.304Z,98741.22
2022-11-05T09:01:33.958Z,98741.69
2022-11-05T09:04:00.944Z,98748.34
2022-11-05T09:06:28.114Z,98752.19
2022-11-05T09:08:54.966Z,98758.00
2022-11-05T09:11:21.685Z,98757.19
2022-11-05T09:13:48.510Z,98767.88
2022-11-05T09:16:21.240Z,98766.34
2022-11-05T09:18:48.886Z,98771.91
2022-11-05T09:21:17.146Z,98783.94
2022-11-05T09:23:44.584Z,98787.50
2022-11-05T09:26:12.400Z,98780.66
2022-11-05T09:28:39.525Z,98788.13
2022-11-05T09:31:08.594Z,98790.06
2022-11-05T09:33:37.626Z,98795.50
2022-11-05T09:36:04.961Z,98795.53
2022-11-05T09:38:33.072Z,98799.84
2022-11-05T09:41:21.634Z,98801.69
2022-11-05T09:43:53.746Z,98802.56
2022-11-05T09:46:24.130Z,98811.50
2022-11-05T09:49:03.272Z,98807.44
2022-11-05T09:51:31.263Z,98810.28
2022-11-05T09:53:59.601Z,98814.59
2022-11-05T09:56:40.288Z,98827.09
2022-11-05T09:59:20.216Z,98820.00
2022-11-05T10:01:48.030Z,98824.38
2022-11-05T10:04:19.850Z,98840.41
2022-11-05T10:06:51.607Z,98835.28
2022-11-05T10:09:26.652Z,98849.22
2022-11-05T10:12:07.532Z,98845.25
2022-11-05T10:14:40.975Z,98845.94
2022-11-05T10:17:18.015Z,98846.03
2022-11-05T10:19:54.164Z,98841.59
2022-11-05T10:22:20.834Z,98846.91
2022-11-05T10:24:50.528Z,98846.78
2022-11-05T10:27:20.785Z,98853.88
2022-11-05T10:29:48.287Z,98854.69
2022-11-05T10:32:39.497Z,98852.16
2022-11-05T10:35:11.494Z,98860.81
2022-11-05T10:37:41.050Z,98857.13
2022-11-05T10:40:23.144Z,98863.97
2022-11-05T10:43:11.678Z,98857.78
2022-11-05T10:45:59.736Z,98860.38
2022-11-05T10:48:46.045Z,98858.56
2022-11-05T10:51:13.485Z,98855.16
2022-11-05T10:54:00.509Z,98855.88
2022-11-05T10:56:38.829Z,98855.53
2022-11-05T10:59:18.864Z,98853.72
2022-11-05T11:01:46.518Z,98863.28
2022-11-05T11:04:20.410Z,98855.28
2022-11-05T11:06:53.634Z,98855.09
2022-11-05T11:09:29.005Z,98858.50
2022-11-05T11:11:58.504Z,98856.97
2022-11-05T11:14:26.523Z,98854.31
2022-11-05T11:16:57.628Z,98857.97
2022-11-05T11:19:35.797Z,98849.94
2022-11-05T11:22:05.449Z,98844.66
2022-11-05T11:24:39.790Z,98848.22
2022-11-05T11:27:10.807Z,98858.00
2022-11-05T11:29:44.002Z,98857.09
2022-11-05T11:32:17.998Z,98862.28
2022-11-05T11:34:48.637Z,98860.44
2022-11-05T11:37:21.639Z,98856.97
2022-11-05T11:39:57.688Z,98857.84
2022-11-05T11:42:28.109Z,98858.56
2022-11-05T11:44:56.341Z,98854.38
2022-11-05T11:47:23.120Z,98845.94
2022-11-05T11:50:00.804Z,98856.41
2022-11-05T11:52:33.071Z,98864.47
2022-11-05T11:55:11.882Z,98868.00
2022-11-05T11:58:06.556Z,98876.84
2022-11-05T12:00:46.279Z,98870.69
2022-11-05T12:03:35.625Z,98874.22
2022-11-05T12:06:31.860Z,98854.03
2022-11-05T12:09:15.273Z,98859.19
2022-11-05T12:11:49.039Z,98851.94
2022-11-05T12:14:34.462Z,98848.97
2022-11-05T12:17:07.275Z,98851.50
2022-11-05T12:19:52.503Z,98852.06
2022-11-05T12:22:31.172Z,98852.75
2022-11-05T12:25:10.057Z,98842.97
2022-11-05T12:28:26.360Z,98849.09
2022-11-05T12:31:05.762Z,98845.34
2022-11-05T12:33:40.504Z,98843.78
2022-11-05T12:36:32.686Z,98845.44
2022-11-05T12:39:31.747Z,98839.16
2022-11-05T12:42:07.321Z,98833.72
2022-11-05T12:44:58.961Z,98840.66
2022-11-05T12:47:25.539Z,98823.66
2022-11-05T12:50:10.393Z,98824.16
2022-11-05T12:53:14.782Z,98817.41
2022-11-05T12:55:48.747Z,98811.53
2022-11-05T12:58:22.289Z,98806.06
2022-11-05T13:00:57.590Z,98812.88
2022-11-05T13:03:46.161Z,98805.59
2022-11-05T13:06:30.225Z,98803.44
2022-11-05T13:09:09.054Z,98818.72
2022-11-05T13:11:41.928Z,98807.34
2022-11-05T13:14:17.504Z,98796.88
2022-11-05T13:16:56.421Z,98796.19
2022-11-05T13:19:35.622Z,98786.75
2022-11-05T13:22:21.969Z,98785.19
2022-11-05T13:24:51.140Z,98788.00
2022-11-05T13:27:52.542Z,98792.91
2022-11-05T13:30:25.637Z,98789.94
2022-11-05T13:32:55.246Z,98787.41
2022-11-05T13:35:41.629Z,98795.59
2022-11-05T13:38:37.325Z,98792.34
2022-11-05T13:41:35.103Z,98806.28
2022-11-05T13:44:19.802Z,98801.63
2022-11-05T13:47:08.153Z,98802.44
2022-11-05T13:49:34.719Z,98802.53
2022-11-05T13:52:10.392Z,98799.09
2022-11-05T13:54:37.009Z,98797.66
2022-11-05T13:57:18.457Z,98796.06
2022-11-05T14:00:03.366Z,98802.72
2022-11-05T14:02:45.219Z,98799.59
2022-11-05T14:05:32.244Z,98795.41
2022-11-05T14:08:16.362Z,98809.88
2022-11-05T14:10:58.857Z,98804.75
2022-11-05T14:13:42.242Z,98800.53
2022-11-05T14:16:17.913Z,98801.63
2022-11-05T14:18:55.811Z,98798.13
2022-11-05T14:21:25.533Z,98799.28
2022-11-05T14:23:54.634Z,98786.94
2022-11-05T14:26:23.442Z,98782.50
2022-11-05T14:29:11.486Z,98779.75
2022-11-05T14:32:07.688Z,98772.66
2022-11-05T14:34:47.474Z,98764.75
2022-11-05T14:37:22.388Z,98760.25
2022-11-05T14:39:49.763Z,98763.00
2022-11-05T14:42:22.886Z,98768.28
2022-11-05T14:44:56.895Z,98770.03
2022-11-05T14:47:27.769Z,98768.19
2022-11-05T14:50:15.982Z,98772.47
2022-11-05T14:52:52.080Z,98775.91
2022-11-05T14:55:37.679Z,98769.03
2022-11-05T14:58:25.529Z,98778.00
2022-11-05T15:00:53.647Z,98773.69
2022-11-05T15:03:31.770Z,98775.63
2022-11-05T15:06:22.214Z,98776.56
2022-11-05T15:08:58.818Z,98784.50
2022-11-05T15:11:37.099Z,98781.84
2022-11-05T15:14:16.435Z,98785.44
2022-11-05T15:16:45.117Z,98787.22
2022-11-05T15:19:21.509Z,98789.13
2022-11-05T15:21:49.380Z,98787.44
2022-11-05T15:24:17.944Z,98778.63
2022-11-05T15:26:58.712Z,98785.75
2022-11-05T15:29:28.297Z,98789.34
2022-11-05T15:31:55.478Z,98785.75
2022-11-05T15:34:24.615Z,98785.06
2022-11-05T15:36:54.666Z,98789.53
2022-11-05T15:39:31.896Z,98775.47
2022-11-05T15:42:04.477Z,98777.41
2022-11-05T15:44:38.007Z,98780.13
2022-11-05T15:47:25.762Z,98772.38
2022-11-05T15:50:03.482Z,98780.50
2022-11-05T15:52:42.067Z,98779.69
2022-11-05T15:55:14.301Z,98788.50
2022-11-05T15:57:50.704Z,98779.75
2022-11-05T16:00:26.859Z,98774.53
2022-11-05T16:02:57.182Z,98778.13
2022-11-05T16:05:26.715Z,98785.16
2022-11-05T16:07:53.758Z,98779.97
2022-11-05T16:10:24.219Z,98786.19
2022-11-05T16:12:51.046Z,98785.38
2022-11-05T16:15:24.174Z,98791.53
2022-11-05T16:18:00.538Z,98785.41
2022-11-05T16:20:33.709Z,98781.91
2022-11-05T16:23:22.562Z,98784.59
2022-11-05T16:25:50.297Z,98772.25
2022-11-05T16:28:23.488Z,98785.59
2022-11-05T16:31:02.092Z,98787.41
2022-11-05T16:33:34.005Z,98801.47
2022-11-05T16:36:00.842Z,98793.59
2022-11-05T16:38:27.789Z,98792.72
2022-11-05T16:40:54.625Z,98795.44
2022-11-05T16:43:23.919Z,98787.56
2022-11-05T16:45:54.127Z,98786.72
2022-11-05T16:48:21.186Z,98787.66
2022-11-05T16:50:47.842Z,98786.81
2022-11-05T16:53:15.562Z,98787.72
2022-11-05T16:55:45.117Z,98798.41
2022-11-05T16:58:21.838Z,98790.53
2022-11-05T17:00:51.031Z,98796.75
2022-11-05T17:03:18.401Z,98796.81
2022-11-05T17:05:45.358Z,98787.25
2022-11-05T17:08:12.253Z,98794.38
2022-11-05T17:10:39.204Z,98793.59
2022-11-05T17:13:05.869Z,98805.09
2022-11-05T17:15:35.607Z,98801.63
2022-11-05T17:18:04.023Z,98805.19
2022-11-05T17:20:57.257Z,98812.31
2022-11-05T17:23:26.661Z,98813.19
2022-11-05T17:25:56.391Z,98822.06
2022-11-05T17:28:23.729Z,98817.66
2022-11-05T17:30:52.888Z,98818.56
2022-11-05T17:33:23.157Z,98819.34
2022-11-05T17:35:51.243Z,98820.19
2022-11-05T17:38:18.543Z,98812.22
2022-11-05T17:40:45.439Z,98817.41
2022-11-05T17:43:12.601Z,98818.25
2022-11-05T17:45:44.299Z,98812.94
2022-11-05T17:48:11.655Z,98819.00
2022-11-05T17:50:51.058Z,98818.09
2022-11-05T17:53:18.995Z,98817.28
2022-11-05T17:55:47.330Z,98812.94
2022-11-05T17:58:14.438Z,98811.25
2022-11-05T18:00:42.366Z,98812.19
2022-11-05T18:03:10.817Z,98820.19
2022-11-05T18:05:38.202Z,98820.28
2022-11-05T18:08:04.982Z,98821.25
2022-11-05T18:10:32.077Z,98820.41
2022-11-05T18:12:58.869Z,98822.19
2022-11-05T18:15:25.511Z,98824.88
2022-11-05T18:17:52.131Z,98832.75
2022-11-05T18:20:19.571Z,98829.25
2022-11-05T18:22:49.061Z,98815.97
2022-11-05T18:25:16.602Z,98823.88
2022-11-05T18:27:43.726Z,98826.50
2022-11-05T18:30:13.889Z,98818.66
2022-11-05T18:32:40.756Z,98823.00
2022-11-05T18:35:07.826Z,98824.75
2022-11-05T18:37:34.669Z,98825.63
2022-11-05T18:40:01.331Z,98828.31
2022-11-05T18:42:28.924Z,98823.97
2022-11-05T18:44:55.546Z,98820.47
2022-11-05T18:47:22.307Z,98814.28
2022-11-05T18:49:48.918Z,98809.06
2022-11-05T18:52:15.873Z,98816.09
2022-11-05T18:54:42.630Z,98821.44
2022-11-05T18:57:09.299Z,98816.09
2022-11-05T18:59:38.616Z,98819.59
2022-11-05T19:02:08.434Z,98816.94
2022-11-05T19:04:36.303Z,98816.94
2022-11-05T19:07:05.500Z,98827.38
2022-11-05T19:09:38.128Z,98822.91
2022-11-05T19:12:06.324Z,98816.72
2022-11-05T19:14:33.528Z,98822.84
2022-11-05T19:17:00.963Z,98821.91
2022-11-05T19:19:28.883Z,98820.16
2022-11-05T19:21:55.869Z,98823.66
2022-11-05T19:24:22.585Z,98816.66
2022-11-05T19:26:49.245Z,98814.94
2022-11-05T19:29:16.345Z,98817.63
2022-11-05T19:31:43.176Z,98803.56
2022-11-05T19:34:09.958Z,98808.84
2022-11-05T19:36:36.670Z,98812.38
2022-11-05T19:39:08.704Z,98807.16
2022-11-05T19:41:35.524Z,98806.28
2022-11-05T19:44:02.379Z,98802.81
2022-11-05T19:46:30.578Z,98802.75
2022-11-05T19:48:59.001Z,98804.53
2022-11-05T19:51:28.143Z,98808.88
2022-11-05T19:53:55.781Z,98801.75
2022-11-05T19:56:28.083Z,98801.81
2022-11-05T19:58:54.792Z,98807.13
2022-11-05T20:01:23.872Z,98808.84
2022-11-05T20:03:51.285Z,98816.75
2022-11-05T20:06:31.897Z,98817.59
2022-11-05T20:11:48.685Z,98808.84
2022-11-05T20:14:15.542Z,98800.03
2022-11-05T20:16:43.539Z,98807.91
2022-11-05T20:19:14.188Z,98801.75
2022-11-05T20:21:41.243Z,98797.38
2022-11-05T20:24:08.500Z,98798.19
2022-11-05T20:26:35.108Z,98786.78
2022-11-05T20:29:01.966Z,98798.19
2022-11-05T20:31:29.097Z,98807.91
2022-11-05T20:33:56.293Z,98808.84
2022-11-05T20:36:24.919Z,98815.13
2022-11-05T20:38:58.004Z,98820.44
2022-11-05T20:41:26.066Z,98817.75
2022-11-05T20:43:53.406Z,98816.00
2022-11-05T20:46:21.958Z,98809.06
2022-11-05T20:48:48.734Z,98814.44
2022-11-05T20:51:18.174Z,98817.97
2022-11-05T20:53:46.225Z,98815.41
2022-11-05T20:56:34.620Z,98819.88
2022-11-05T20:59:02.215Z,98818.19
2022-11-05T21:01:31.907Z,98827.91
2022-11-05T21:03:59.719Z,98832.25
2022-11-05T21:06:26.580Z,98828.78
2022-11-05T21:08:53.755Z,98838.44
2022-11-05T21:11:20.851Z,98834.03
2022-11-05T21:13:47.796Z,98840.19
2022-11-05T21:16:18.174Z,98832.28
2022-11-05T21:18:46.453Z,98833.13
2022-11-05T21:21:19.921Z,98826.97
2022-11-05T21:23:47.037Z,98823.47
2022-11-05T21:26:15.304Z,98826.94
2022-11-05T21:28:42.390Z,98831.31
2022-11-05T21:31:09.988Z,98826.00
2022-11-05T21:33:37.356Z,98826.00
2022-11-05T21:36:10.253Z,98830.38
2022-11-05T21:38:37.351Z,98833.84
2022-11-05T21:41:04.802Z,98837.38
2022-11-05T21:43:31.501Z,98833.88
2022-11-05T21:46:02.171Z,98836.53
2022-11-05T21:48:29.190Z,98830.44
2022-11-05T21:51:14.785Z,98834.81
2022-11-05T21:54:00.126Z,98823.38
2022-11-05T21:56:46.553Z,98811.09
2022-11-05T21:59:35.773Z,98816.41
2022-11-05T22:02:03.220Z,98808.53
2022-11-05T22:04:35.438Z,98819.97
2022-11-05T22:07:02.473Z,98823.59
2022-11-05T22:09:30.030Z,98826.25
2022-11-05T22:11:57.155Z,98820.97
2022-11-05T22:14:24.589Z,98814.78
2022-11-05T22:16:51.333Z,98823.59
2022-11-05T22:19:18.553Z,98814.81
2022-11-05T22:21:45.552Z,98819.28
2022-11-05T22:24:12.279Z,98816.63
2022-11-05T22:26:41.323Z,98814.88
2022-11-05T22:29:08.342Z,98812.28
2022-11-05T22:31:36.693Z,98808.81
2022-11-05T22:34:06.069Z,98812.31
2022-11-05T22:36:34.219Z,98814.97
2022-11-05T22:39:01.357Z,98810.63
2022-11-05T22:41:28.905Z,98815.88
2022-11-05T22:43:55.759Z,98819.44
2022-11-05T22:46:25.096Z,98824.72
2022-11-05T22:48:52.399Z,98826.56
2022-11-05T22:51:27.514Z,98814.22
2022-11-05T22:53:57.962Z,98815.16
2022-11-05T22:56:28.562Z,98821.31
2022-11-05T22:58:55.695Z,98823.06
2022-11-05T23:01:23.308Z,98831.00
2022-11-05T23:03:52.428Z,98820.50
2022-11-05T23:06:39.224Z,98817.88
2022-11-05T23:09:31.184Z,98817.88
2022-11-05T23:11:58.340Z,98810.88
2022-11-05T23:14:25.015Z,98806.53
2022-11-05T23:17:10.309Z,98806.63
2022-11-05T23:19:55.733Z,98804.81
2022-11-05T23:22:45.261Z,98802.22
2022-11-05T23:25:17.982Z,98799.59
2022-11-05T23:27:46.385Z,98803.06
2022-11-05T23:30:17.346Z,98803.09
2022-11-05T23:32:44.226Z,98789.97
2022-11-05T23:35:11.377Z,98794.38
2022-11-05T23:37:56.997Z,98796.16
2022-11-05T23:40:29.140Z,98790.03
2022-11-05T23:43:15.285Z,98794.41
2022-11-05T23:45:59.189Z,98785.63
2022-11-05T23:48:37.506Z,98775.16
2022-11-05T23:51:05.400Z,98772.53
2022-11-05T23:53:34.332Z,98767.28
2022-11-05T23:56:04.433Z,98768.16
2022-11-05T23:58:31.437Z,98755.03
